Time;durP1;ratioP1;P1;durP2;ratioP2;P2;SDS_P1;SDS_P2;PMS_P1;PMS_P2;Temp;Humidity;BMP_temperature;BMP_pressure;BME280_temperature;BME280_humidity;BME280_pressure;Samples;Min_cycle;Max_cycle;Signal;HPM_P1;HPM_P2
2022/10/05 00:01:00;;;;;;;5.43;2.00;;;14.30;99.90;;;;;;4973906;28;20061;-67
2022/10/05 00:03:37;;;;;;;8.55;2.53;;;14.30;99.90;;;;;;4974225;28;20019;-67
2022/10/05 00:06:05;;;;;;;6.40;1.83;;;14.30;99.90;;;;;;4993045;28;20463;-66
2022/10/05 00:08:36;;;;;;;7.80;2.47;;;14.40;99.90;;;;;;4984660;28;20039;-69
2022/10/05 00:11:07;;;;;;;4.97;2.28;;;14.40;99.90;;;;;;4982185;28;20033;-71
2022/10/05 00:13:35;;;;;;;12.35;2.22;;;14.40;99.90;;;;;;4983099;28;20015;-69
2022/10/05 00:16:17;;;;;;;7.82;2.25;;;14.40;99.90;;;;;;4986254;28;20061;-73
2022/10/05 00:18:53;;;;;;;11.18;2.25;;;14.40;99.90;;;;;;4988204;28;20018;-67
2022/10/05 00:21:26;;;;;;;11.38;2.28;;;14.40;99.90;;;;;;4982913;28;20105;-72
2022/10/05 00:23:56;;;;;;;7.85;1.67;;;14.40;99.90;;;;;;4987075;28;20022;-71
2022/10/05 00:26:30;;;;;;;7.57;2.50;;;14.30;99.90;;;;;;4988017;28;20543;-71
2022/10/05 00:28:58;;;;;;;6.00;1.58;;;14.40;99.90;;;;;;4987607;28;20496;-73
2022/10/05 00:31:31;;;;;;;4.55;2.45;;;14.40;99.90;;;;;;4984650;28;20176;-72
2022/10/05 00:33:59;;;;;;;7.25;1.75;;;14.30;99.90;;;;;;4997191;28;20022;-70
2022/10/05 00:36:27;;;;;;;6.95;2.53;;;14.40;99.90;;;;;;4997202;28;20097;-69
2022/10/05 00:38:55;;;;;;;5.85;1.60;;;14.40;99.90;;;;;;4997217;28;20027;-71
2022/10/05 00:41:40;;;;;;;7.07;1.33;;;14.40;99.90;;;;;;4993967;28;20034;-71
2022/10/05 00:44:32;;;;;;;9.50;1.83;;;14.40;99.90;;;;;;4987748;28;20054;-71
2022/10/05 00:47:18;;;;;;;8.50;1.55;;;14.40;99.90;;;;;;4995347;28;20041;-72
2022/10/05 00:49:48;;;;;;;6.00;1.42;;;14.40;99.90;;;;;;4989353;28;20027;-72
2022/10/05 00:52:31;;;;;;;5.80;1.48;;;14.40;99.90;;;;;;4985986;28;20034;-72
2022/10/05 00:55:20;;;;;;;13.73;1.90;;;14.40;99.90;;;;;;4986273;28;20041;-72
2022/10/05 00:58:15;;;;;;;7.97;1.90;;;14.50;99.90;;;;;;4987396;28;20026;-69
2022/10/05 01:01:11;;;;;;;6.35;1.50;;;14.50;99.90;;;;;;4987595;28;20026;-68
2022/10/05 01:03:51;;;;;;;14.85;2.03;;;14.40;99.90;;;;;;4977106;28;20623;-70
2022/10/05 01:06:46;;;;;;;8.13;1.50;;;14.50;99.90;;;;;;4977236;28;20103;-69
2022/10/05 01:09:32;;;;;;;3.45;1.10;;;14.50;99.90;;;;;;4958317;28;20117;-69
2022/10/05 01:12:06;;;;;;;5.10;1.58;;;14.50;99.90;;;;;;4976892;28;20480;-68
2022/10/05 01:14:43;;;;;;;5.60;1.73;;;14.50;99.90;;;;;;4976678;28;20031;-70
2022/10/05 01:17:22;;;;;;;7.75;1.30;;;14.50;99.90;;;;;;4977094;28;20035;-71
2022/10/05 01:20:16;;;;;;;10.43;1.50;;;14.40;99.90;;;;;;4976860;28;20073;-70
2022/10/05 01:22:50;;;;;;;10.05;1.67;;;14.40;99.90;;;;;;4977317;28;20019;-70
2022/10/05 01:25:41;;;;;;;6.88;1.20;;;14.40;99.90;;;;;;4976832;28;20421;-70
2022/10/05 01:28:38;;;;;;;6.45;1.52;;;14.40;99.90;;;;;;4975782;28;20031;-74
2022/10/05 01:31:12;;;;;;;10.50;1.70;;;14.40;99.90;;;;;;4957794;28;20051;-65
2022/10/05 01:34:08;;;;;;;6.38;1.55;;;14.50;99.90;;;;;;4976550;28;20105;-66
2022/10/05 01:36:56;;;;;;;6.53;1.70;;;14.50;99.90;;;;;;4981744;28;20152;-66
2022/10/05 01:39:43;;;;;;;8.00;2.15;;;14.40;99.90;;;;;;4986238;28;20038;-67
2022/10/05 01:42:23;;;;;;;10.05;1.83;;;14.40;99.90;;;;;;4986659;28;20015;-67
2022/10/05 01:45:06;;;;;;;4.10;1.10;;;14.40;99.90;;;;;;4986424;28;20073;-68
2022/10/05 01:47:58;;;;;;;7.00;1.88;;;14.50;99.90;;;;;;4987065;28;20026;-68
2022/10/05 01:50:57;;;;;;;7.40;1.92;;;14.40;99.90;;;;;;4995714;28;20030;-68
2022/10/05 01:53:58;;;;;;;7.20;1.75;;;14.40;99.90;;;;;;4986767;28;20118;-68
2022/10/05 01:56:43;;;;;;;10.13;1.83;;;14.40;99.90;;;;;;4982422;28;20027;-68
2022/10/05 01:59:22;;;;;;;7.85;1.70;;;14.40;99.90;;;;;;4988361;28;20032;-69
2022/10/05 02:02:03;;;;;;;13.95;2.03;;;14.40;99.90;;;;;;4985239;28;20484;-69
2022/10/05 02:04:50;;;;;;;15.30;2.00;;;14.40;99.90;;;;;;4986245;28;20026;-69
2022/10/05 02:07:41;;;;;;;10.38;2.28;;;14.40;99.90;;;;;;4984008;28;20038;-69
2022/10/05 02:10:26;;;;;;;12.55;1.98;;;14.50;99.90;;;;;;4985594;28;20023;-69
2022/10/05 02:13:34;;;;;;;16.75;2.22;;;14.50;99.90;;;;;;4979420;28;20050;-68
2022/10/05 02:16:09;;;;;;;10.35;1.38;;;14.50;99.90;;;;;;4979401;28;20073;-68
2022/10/05 02:18:47;;;;;;;9.73;2.00;;;14.50;99.90;;;;;;4984793;28;20472;-68
2022/10/05 02:21:16;;;;;;;6.70;2.40;;;14.40;99.90;;;;;;4984551;28;20023;-68
2022/10/05 02:23:45;;;;;;;8.57;2.00;;;14.40;99.90;;;;;;4987261;28;20085;-69
2022/10/05 02:26:15;;;;;;;9.40;2.53;;;14.40;99.90;;;;;;4973877;28;20034;-69
2022/10/05 02:28:57;;;;;;;13.00;2.03;;;14.30;99.90;;;;;;4974827;28;20117;-69
2022/10/05 02:31:49;;;;;;;7.25;1.58;;;14.30;99.90;;;;;;4973508;28;20492;-69
2022/10/05 02:34:24;;;;;;;4.95;1.58;;;14.30;99.90;;;;;;4974617;28;20507;-71
2022/10/05 02:37:28;;;;;;;9.85;1.98;;;14.30;99.90;;;;;;4974868;28;20406;-70
2022/10/05 02:40:26;;;;;;;9.57;1.95;;;14.30;99.90;;;;;;4973023;28;20117;-71
2022/10/05 02:43:07;;;;;;;8.43;2.22;;;14.30;99.90;;;;;;4978462;28;20022;-69
2022/10/05 02:45:50;;;;;;;7.05;1.90;;;14.30;99.90;;;;;;4973966;28;20398;-68
2022/10/05 02:48:27;;;;;;;9.70;2.50;;;14.30;99.90;;;;;;4972096;28;20038;-68
2022/10/05 02:51:17;;;;;;;9.43;2.35;;;14.30;99.90;;;;;;4971476;28;20027;-68
2022/10/05 02:54:02;;;;;;;6.85;1.52;;;14.20;99.90;;;;;;4972770;28;20535;-68
2022/10/05 02:56:45;;;;;;;9.70;2.25;;;14.20;99.90;;;;;;4972447;28;20116;-68
2022/10/05 02:59:35;;;;;;;8.02;1.60;;;14.20;99.90;;;;;;4972989;28;20107;-68
2022/10/05 03:02:05;;;;;;;10.10;1.80;;;14.20;99.90;;;;;;4972891;28;20443;-68
2022/10/05 03:04:40;;;;;;;4.15;0.98;;;14.10;99.90;;;;;;4972815;28;20093;-68
2022/10/05 03:07:20;;;;;;;6.68;1.73;;;14.10;99.90;;;;;;4972764;28;20039;-68
2022/10/05 03:10:04;;;;;;;5.55;1.75;;;14.10;99.90;;;;;;4973593;28;20073;-68
2022/10/05 03:13:00;;;;;;;8.15;1.45;;;14.00;99.90;;;;;;4974742;28;20054;-68
2022/10/05 03:15:31;;;;;;;11.60;1.70;;;14.00;99.90;;;;;;4974991;28;20018;-68
2022/10/05 03:18:07;;;;;;;10.00;2.35;;;13.90;99.90;;;;;;4975240;28;20027;-68
2022/10/05 03:21:09;;;;;;;9.02;1.67;;;14.00;99.90;;;;;;4975062;28;20503;-68
2022/10/05 03:24:01;;;;;;;6.07;1.50;;;14.00;99.90;;;;;;4974846;28;20495;-68
2022/10/05 03:26:45;;;;;;;7.05;1.35;;;13.90;99.90;;;;;;4975321;28;20413;-68
2022/10/05 03:29:34;;;;;;;5.82;1.52;;;13.90;99.90;;;;;;4974824;28;20023;-68
2022/10/05 03:32:33;;;;;;;9.63;1.63;;;13.80;99.90;;;;;;4974675;28;20054;-68
2022/10/05 03:35:10;;;;;;;8.40;1.60;;;13.90;99.90;;;;;;4952525;28;20077;-68
2022/10/05 03:37:38;;;;;;;13.13;1.50;;;13.80;99.90;;;;;;4974745;28;20098;-68
2022/10/05 03:40:13;;;;;;;3.72;1.02;;;13.80;99.90;;;;;;4974625;28;20376;-68
2022/10/05 03:43:10;;;;;;;8.57;1.98;;;13.70;99.90;;;;;;4974696;28;20085;-68
2022/10/05 03:45:57;;;;;;;6.13;1.35;;;13.70;99.90;;;;;;4960055;28;20054;-68
2022/10/05 03:48:55;;;;;;;6.43;1.85;;;13.70;99.90;;;;;;4974662;28;20027;-68
2022/10/05 03:51:47;;;;;;;11.45;2.25;;;13.70;99.90;;;;;;4973681;28;20035;-68
2022/10/05 03:54:26;;;;;;;6.68;1.88;;;13.70;99.90;;;;;;4973908;28;20027;-68
2022/10/05 03:57:12;;;;;;;9.57;1.83;;;13.70;99.90;;;;;;4978477;28;20019;-68
2022/10/05 03:59:59;;;;;;;4.20;1.13;;;13.70;99.90;;;;;;4978626;28;20116;-68
2022/10/05 04:02:52;;;;;;;3.40;0.90;;;13.60;99.90;;;;;;4978491;28;20027;-68
2022/10/05 04:05:50;;;;;;;5.57;1.33;;;13.60;99.90;;;;;;4978715;28;20037;-67
2022/10/05 04:09:01;;;;;;;11.90;1.35;;;13.50;99.90;;;;;;4977679;28;20045;-67
2022/10/05 04:11:35;;;;;;;5.63;1.35;;;13.40;99.90;;;;;;4967996;28;20041;-68
2022/10/05 04:14:27;;;;;;;8.60;1.40;;;13.40;99.90;;;;;;4978196;28;20058;-68
2022/10/05 04:17:02;;;;;;;5.53;2.10;;;13.40;99.90;;;;;;4972313;28;20400;-68
2022/10/05 04:19:43;;;;;;;5.70;1.67;;;13.50;99.90;;;;;;4978027;28;20031;-68
2022/10/05 04:22:27;;;;;;;8.48;1.63;;;13.50;99.90;;;;;;4977967;28;20530;-68
2022/10/05 04:25:14;;;;;;;5.05;1.48;;;13.50;99.90;;;;;;4978127;28;20031;-67
2022/10/05 04:28:19;;;;;;;6.05;1.38;;;13.60;99.90;;;;;;4977803;28;20042;-68
2022/10/05 04:30:50;;;;;;;7.25;1.50;;;13.50;99.90;;;;;;4975956;28;20096;-68
2022/10/05 04:33:18;;;;;;;7.03;1.77;;;13.60;99.90;;;;;;4977848;28;20041;-68
2022/10/05 04:36:04;;;;;;;4.82;1.50;;;13.60;99.90;;;;;;4977803;28;20058;-68
2022/10/05 04:38:54;;;;;;;7.13;1.35;;;13.60;99.90;;;;;;4977948;28;20026;-68
2022/10/05 04:41:36;;;;;;;7.53;1.63;;;13.60;99.90;;;;;;4972584;28;20492;-68
2022/10/05 04:44:38;;;;;;;12.68;1.42;;;13.60;99.90;;;;;;4976338;28;20026;-68
2022/10/05 04:47:25;;;;;;;5.57;1.45;;;13.50;99.90;;;;;;4977406;28;20089;-68
2022/10/05 04:50:22;;;;;;;7.32;1.65;;;13.50;99.90;;;;;;4977491;28;20049;-68
2022/10/05 04:52:59;;;;;;;6.82;1.75;;;13.50;99.90;;;;;;4977392;28;20030;-68
2022/10/05 04:55:30;;;;;;;10.30;2.17;;;13.60;99.90;;;;;;4977623;28;20034;-68
2022/10/05 04:58:04;;;;;;;9.63;2.13;;;13.60;99.90;;;;;;4977458;28;20023;-68
2022/10/05 05:01:04;;;;;;;7.28;2.35;;;13.60;99.90;;;;;;4977433;28;20027;-68
2022/10/05 05:04:14;;;;;;;6.88;1.75;;;13.60;99.90;;;;;;4977243;28;20531;-68
2022/10/05 05:06:55;;;;;;;15.90;2.83;;;13.60;99.90;;;;;;4977696;28;20038;-68
2022/10/05 05:09:35;;;;;;;11.07;2.30;;;13.60;99.90;;;;;;4977115;28;20035;-68
2022/10/05 05:12:32;;;;;;;12.77;2.80;;;13.60;99.90;;;;;;4977056;28;20027;-68
2022/10/05 05:15:05;;;;;;;8.30;1.45;;;13.70;99.90;;;;;;4960293;28;20499;-68
2022/10/05 05:17:45;;;;;;;10.00;2.33;;;13.70;99.90;;;;;;4977029;28;20042;-68
2022/10/05 05:20:20;;;;;;;9.90;2.05;;;13.70;99.90;;;;;;4976565;28;20037;-69
2022/10/05 05:23:13;;;;;;;11.63;2.60;;;13.70;99.90;;;;;;4976622;28;20066;-68
2022/10/05 05:26:14;;;;;;;11.95;2.65;;;13.70;99.90;;;;;;4976572;28;20126;-68
2022/10/05 05:28:54;;;;;;;11.05;2.47;;;13.70;99.90;;;;;;4960302;28;20089;-67
2022/10/05 05:31:33;;;;;;;13.95;1.90;;;13.70;99.90;;;;;;4976452;28;20466;-68
2022/10/05 05:34:22;;;;;;;14.00;2.60;;;13.70;99.90;;;;;;4976371;28;20053;-68
2022/10/05 05:37:18;;;;;;;14.05;3.42;;;13.70;99.90;;;;;;4981615;28;20030;-68
2022/10/05 05:39:49;;;;;;;11.73;2.20;;;13.70;99.90;;;;;;4986178;28;20101;-68
2022/10/05 05:42:55;;;;;;;13.70;1.88;;;13.70;99.90;;;;;;4984443;28;20105;-72
2022/10/05 05:45:23;;;;;;;10.50;1.50;;;13.70;99.90;;;;;;4974873;28;20122;-67
2022/10/05 05:47:56;;;;;;;17.77;2.30;;;13.70;99.90;;;;;;4986622;28;20034;-63
2022/10/05 05:50:36;;;;;;;11.90;2.30;;;13.70;99.90;;;;;;4985529;28;20094;-64
2022/10/05 05:53:07;;;;;;;13.15;2.05;;;13.70;99.90;;;;;;4985751;28;20023;-66
2022/10/05 05:55:41;;;;;;;12.35;2.05;;;13.70;99.90;;;;;;4985831;28;20019;-68
2022/10/05 05:58:44;;;;;;;17.25;1.80;;;13.70;99.90;;;;;;4986357;28;20023;-67
2022/10/05 06:01:30;;;;;;;11.98;2.03;;;13.60;99.90;;;;;;4979396;28;20121;-67
2022/10/05 06:04:30;;;;;;;16.88;2.03;;;13.60;99.90;;;;;;4976170;28;20168;-67
2022/10/05 06:07:00;;;;;;;14.80;3.03;;;13.60;99.90;;;;;;4973870;28;20086;-67
2022/10/05 06:10:14;;;;;;;15.93;2.20;;;13.60;99.90;;;;;;4975691;28;20083;-66
2022/10/05 06:12:46;;;;;;;12.63;2.00;;;13.60;99.90;;;;;;4975306;28;20077;-70
2022/10/05 06:15:43;;;;;;;15.27;2.15;;;13.60;99.90;;;;;;4975797;28;20019;-63
2022/10/05 06:18:19;;;;;;;13.38;2.35;;;13.60;99.90;;;;;;4975523;28;20400;-66
2022/10/05 06:20:53;;;;;;;12.38;2.40;;;13.60;99.90;;;;;;4975569;28;20026;-69
2022/10/05 06:23:44;;;;;;;9.88;3.15;;;13.60;99.90;;;;;;4975825;28;20023;-64
2022/10/05 06:26:58;;;;;;;11.50;2.13;;;13.60;99.90;;;;;;4956313;28;20492;-65
2022/10/05 06:29:50;;;;;;;12.00;2.35;;;13.60;99.90;;;;;;4982061;28;20067;-68
2022/10/05 06:32:18;;;;;;;9.80;2.03;;;13.50;99.90;;;;;;4981719;28;20077;-70
2022/10/05 06:35:04;;;;;;;11.32;2.88;;;13.50;99.90;;;;;;4984211;28;20416;-65
2022/10/05 06:38:01;;;;;;;11.50;2.10;;;13.50;99.90;;;;;;4985036;28;20419;-61
2022/10/05 06:40:50;;;;;;;18.20;2.95;;;13.50;99.90;;;;;;4985546;28;20053;-65
2022/10/05 06:43:32;;;;;;;7.63;1.88;;;13.50;99.90;;;;;;4985565;28;20096;-63
2022/10/05 06:46:25;;;;;;;7.18;2.10;;;13.50;99.90;;;;;;4985930;28;20084;-62
2022/10/05 06:49:29;;;;;;;8.15;2.63;;;13.50;99.90;;;;;;4992861;28;20045;-64
2022/10/05 06:52:25;;;;;;;11.05;2.75;;;13.50;99.90;;;;;;4981206;28;20037;-64
2022/10/05 06:55:02;;;;;;;12.93;1.70;;;13.40;99.90;;;;;;4992128;28;20335;-61
2022/10/05 06:57:45;;;;;;;13.63;2.28;;;13.40;99.90;;;;;;4992796;28;20109;-62
2022/10/05 07:00:20;;;;;;;9.35;2.15;;;13.50;99.90;;;;;;4993032;28;20058;-63
2022/10/05 07:03:00;;;;;;;10.00;1.80;;;13.40;99.90;;;;;;4992961;28;20069;-65
2022/10/05 07:05:33;;;;;;;15.30;2.20;;;13.40;99.90;;;;;;4992196;28;20026;-63
2022/10/05 07:08:09;;;;;;;11.73;2.63;;;13.50;99.90;;;;;;4992242;28;20031;-63
2022/10/05 07:10:41;;;;;;;;;;;13.50;99.90;;;;;;4992704;28;20052;-63
2022/10/05 07:13:45;;;;;;;12.80;2.17;;;13.40;99.90;;;;;;4992254;28;19906;-62
2022/10/05 07:16:44;;;;;;;9.02;2.25;;;13.30;99.90;;;;;;4992369;28;20034;-62
2022/10/05 07:19:32;;;;;;;19.42;2.88;;;13.30;99.90;;;;;;4992290;28;20033;-65
2022/10/05 07:22:30;;;;;;;13.52;2.28;;;13.30;99.90;;;;;;4983535;28;20407;-64
2022/10/05 07:25:22;;;;;;;15.23;2.63;;;13.30;99.90;;;;;;4993413;28;20030;-62
2022/10/05 07:28:03;;;;;;;24.70;2.90;;;13.30;99.90;;;;;;4994367;28;20117;-62
2022/10/05 07:30:40;;;;;;;10.18;2.47;;;13.30;99.90;;;;;;4993855;28;20484;-63
2022/10/05 07:33:12;;;;;;;13.27;2.42;;;13.30;99.90;;;;;;4994124;28;20034;-65
2022/10/05 07:39:05;;;;;;;11.75;2.47;;;13.30;99.90;;;;;;4994314;28;20081;-65
2022/10/05 07:41:46;;;;;;;9.48;2.88;;;13.30;99.90;;;;;;4994046;28;20058;-66
2022/10/05 07:44:32;;;;;;;15.32;3.35;;;13.30;99.90;;;;;;4994277;28;20113;-64
2022/10/05 07:47:02;;;;;;;9.77;2.08;;;13.30;99.90;;;;;;4994112;28;20041;-63
2022/10/05 07:49:38;;;;;;;18.90;3.15;;;13.30;99.90;;;;;;4993915;28;20487;-65
2022/10/05 07:52:23;;;;;;;16.98;3.63;;;13.30;99.90;;;;;;4993843;28;20034;-66
2022/10/05 07:55:32;;;;;;;12.70;3.10;;;13.30;99.90;;;;;;4993878;28;20030;-66
2022/10/05 07:58:18;;;;;;;19.88;4.00;;;13.30;99.90;;;;;;4993831;28;20041;-64
2022/10/05 08:01:03;;;;;;;17.27;3.78;;;13.30;99.90;;;;;;4993913;28;20022;-66
2022/10/05 08:03:51;;;;;;;12.52;4.00;;;13.30;99.90;;;;;;4993949;28;20022;-65
2022/10/05 08:06:33;;;;;;;22.50;3.40;;;13.30;99.90;;;;;;4993789;28;20042;-66
2022/10/05 08:09:23;;;;;;;11.95;3.67;;;13.30;99.90;;;;;;4993817;28;20026;-65
2022/10/05 08:12:06;;;;;;;12.27;3.38;;;13.30;99.90;;;;;;4990203;28;20038;-66
2022/10/05 08:14:33;;;;;;;10.25;2.55;;;13.30;99.90;;;;;;4993876;28;20088;-66
2022/10/05 08:17:09;;;;;;;12.77;2.65;;;13.20;99.90;;;;;;4993656;28;20022;-66
2022/10/05 08:19:48;;;;;;;11.35;2.45;;;13.20;99.90;;;;;;4993656;28;20387;-65
2022/10/05 08:22:25;;;;;;;12.68;2.90;;;13.20;99.90;;;;;;4993669;28;20427;-66
2022/10/05 08:25:05;;;;;;;20.45;2.88;;;13.10;99.90;;;;;;4993866;28;20538;-66
2022/10/05 08:27:59;;;;;;;21.63;3.88;;;13.10;99.90;;;;;;4994132;28;20077;-65
2022/10/05 08:30:26;;;;;;;13.63;2.83;;;13.10;99.90;;;;;;4983878;28;20042;-66
2022/10/05 08:33:09;;;;;;;16.85;3.22;;;13.10;99.90;;;;;;4993710;28;20031;-63
2022/10/05 08:35:42;;;;;;;10.60;3.10;;;13.10;99.90;;;;;;4993534;28;20439;-65
2022/10/05 08:38:15;;;;;;;20.77;4.53;;;13.10;99.90;;;;;;4996997;28;20098;-66
2022/10/05 08:41:06;;;;;;;20.27;3.67;;;13.10;99.90;;;;;;4997185;28;20022;-66
2022/10/05 08:44:09;;;;;;;20.73;3.83;;;13.20;99.90;;;;;;4997229;28;20084;-66
2022/10/05 08:46:46;;;;;;;13.13;2.95;;;13.10;99.90;;;;;;4997007;28;20030;-64
2022/10/05 08:49:22;;;;;;;12.82;2.67;;;13.20;99.90;;;;;;4997150;28;20027;-65
2022/10/05 08:52:15;;;;;;;12.35;3.72;;;13.20;99.90;;;;;;4996885;28;20483;-65
2022/10/05 08:54:58;;;;;;;23.58;3.15;;;13.20;99.90;;;;;;4996940;28;20038;-65
2022/10/05 08:57:58;;;;;;;17.35;2.75;;;13.20;99.90;;;;;;4996968;28;20471;-65
2022/10/05 09:00:44;;;;;;;18.42;3.28;;;13.30;99.90;;;;;;4996893;28;20030;-65
2022/10/05 09:03:37;;;;;;;15.05;3.65;;;13.20;99.90;;;;;;4997483;28;20464;-65
2022/10/05 09:06:13;;;;;;;17.88;4.32;;;13.20;99.90;;;;;;4996639;28;20038;-66
2022/10/05 09:09:06;;;;;;;17.23;3.70;;;13.20;99.90;;;;;;4996862;28;20058;-66
2022/10/05 09:11:38;;;;;;;12.48;1.95;;;13.20;99.90;;;;;;4987060;28;20030;-65
2022/10/05 09:14:35;;;;;;;17.67;2.50;;;13.20;99.90;;;;;;4996558;28;20026;-64
2022/10/05 09:17:09;;;;;;;11.15;2.42;;;13.20;99.90;;;;;;4996736;28;20026;-66
2022/10/05 09:20:17;;;;;;;13.85;2.50;;;13.10;99.90;;;;;;4996403;28;20402;-64
2022/10/05 09:23:05;;;;;;;9.82;2.33;;;13.10;99.90;;;;;;4996455;28;20102;-65
2022/10/05 09:26:00;;;;;;;14.93;2.53;;;13.10;99.90;;;;;;4996363;28;20026;-65
2022/10/05 09:29:03;;;;;;;8.40;2.40;;;13.10;99.90;;;;;;4996203;28;20133;-64
2022/10/05 09:31:51;;;;;;;7.00;1.88;;;13.10;99.90;;;;;;4995911;28;20525;-65
2022/10/05 09:34:39;;;;;;;10.80;2.28;;;13.20;99.90;;;;;;4996258;28;20386;-63
2022/10/05 09:37:27;;;;;;;10.30;2.13;;;13.20;99.90;;;;;;4996511;28;20019;-64
2022/10/05 09:40:16;;;;;;;12.15;1.90;;;13.10;99.90;;;;;;4995963;28;20109;-65
2022/10/05 09:43:02;;;;;;;13.88;2.92;;;13.10;99.90;;;;;;4996093;28;20026;-64
2022/10/05 09:45:38;;;;;;;13.13;2.50;;;13.10;99.90;;;;;;4996115;28;20542;-62
2022/10/05 09:48:42;;;;;;;15.98;3.13;;;13.10;99.90;;;;;;4995162;28;20163;-65
2022/10/05 09:51:44;;;;;;;17.38;3.20;;;13.10;99.90;;;;;;4995808;28;20022;-65
2022/10/05 09:54:11;;;;;;;11.73;2.67;;;13.10;99.90;;;;;;4992786;28;20039;-65
2022/10/05 09:57:05;;;;;;;10.02;2.25;;;13.20;99.90;;;;;;4995899;28;20436;-65
2022/10/05 09:59:51;;;;;;;19.67;3.30;;;13.10;99.90;;;;;;4995741;28;20117;-65
2022/10/05 10:02:56;;;;;;;18.27;3.08;;;13.20;99.90;;;;;;4995602;28;20054;-66
2022/10/05 10:05:56;;;;;;;16.50;2.47;;;13.20;99.90;;;;;;4984891;28;20438;-65
2022/10/05 10:08:50;;;;;;;11.93;3.55;;;13.20;99.90;;;;;;4991555;28;20038;-61
2022/10/05 10:11:40;;;;;;;15.60;2.88;;;13.20;99.90;;;;;;4995588;28;20031;-66
2022/10/05 10:14:49;;;;;;;18.98;3.55;;;13.20;99.90;;;;;;4995452;28;20030;-62
2022/10/05 10:17:40;;;;;;;13.77;2.58;;;13.20;99.90;;;;;;4990650;28;20042;-63
2022/10/05 10:20:22;;;;;;;14.27;3.42;;;13.20;99.90;;;;;;4995333;28;20427;-66
2022/10/05 10:22:56;;;;;;;12.35;3.33;;;13.20;99.90;;;;;;4995569;28;20026;-65
2022/10/05 10:25:33;;;;;;;15.40;3.95;;;13.10;99.90;;;;;;4995350;28;20034;-66
2022/10/05 10:28:26;;;;;;;14.65;2.53;;;13.20;99.90;;;;;;4995337;28;20049;-66
2022/10/05 10:31:11;;;;;;;17.45;4.22;;;13.10;99.90;;;;;;4991959;28;20169;-66
2022/10/05 10:34:00;;;;;;;16.92;4.32;;;13.10;99.90;;;;;;4995156;28;20054;-66
2022/10/05 10:36:39;;;;;;;18.17;3.42;;;13.10;99.90;;;;;;4994962;28;20026;-63
2022/10/05 10:39:22;;;;;;;20.92;3.75;;;13.20;99.90;;;;;;4994938;28;20034;-65
2022/10/05 10:42:19;;;;;;;7.22;2.53;;;13.10;99.90;;;;;;4995075;28;20058;-65
2022/10/05 10:45:12;;;;;;;15.38;3.92;;;13.10;99.90;;;;;;4994966;28;20022;-65
2022/10/05 10:48:14;;;;;;;16.08;3.53;;;13.10;99.90;;;;;;4984945;28;20496;-65
2022/10/05 10:51:11;;;;;;;16.55;3.63;;;13.10;99.90;;;;;;4993512;28;20026;-66
2022/10/05 10:53:54;;;;;;;18.60;2.42;;;13.10;99.90;;;;;;4994788;28;20030;-65
2022/10/05 10:56:46;;;;;;;20.13;4.07;;;13.10;99.90;;;;;;4994809;28;20487;-66
2022/10/05 10:59:47;;;;;;;9.93;3.47;;;13.10;99.90;;;;;;4994642;28;20072;-66
2022/10/05 11:02:36;;;;;;;21.60;4.15;;;13.10;99.90;;;;;;4994606;28;20026;-65
2022/10/05 11:05:33;;;;;;;14.05;3.17;;;13.10;99.90;;;;;;4994707;28;20475;-65
2022/10/05 11:08:33;;;;;;;19.38;3.20;;;13.10;99.90;;;;;;4994658;28;20042;-63
2022/10/05 11:11:35;;;;;;;22.58;4.18;;;13.10;99.90;;;;;;4994235;28;20041;-65
2022/10/05 11:14:31;;;;;;;13.35;3.53;;;13.10;99.90;;;;;;4994356;28;20483;-65
2022/10/05 11:17:15;;;;;;;10.18;2.47;;;13.10;99.90;;;;;;4994461;28;20018;-65
2022/10/05 11:19:51;;;;;;;17.45;3.38;;;13.10;99.90;;;;;;4994453;28;20080;-65
2022/10/05 11:22:46;;;;;;;14.95;3.13;;;13.10;99.90;;;;;;4994647;28;20468;-65
2022/10/05 11:25:36;;;;;;;18.85;3.25;;;13.10;99.90;;;;;;4994198;28;20061;-66
2022/10/05 11:28:27;;;;;;;22.27;3.28;;;13.10;99.90;;;;;;4994394;28;20037;-65
2022/10/05 11:31:13;;;;;;;28.35;5.10;;;13.10;99.90;;;;;;4994044;28;20046;-68
2022/10/05 11:34:01;;;;;;;25.37;3.80;;;13.20;99.90;;;;;;4994292;28;20110;-66
2022/10/05 11:36:53;;;;;;;12.93;3.10;;;13.20;99.90;;;;;;4994261;28;20267;-66
2022/10/05 11:39:27;;;;;;;12.35;1.60;;;13.00;99.90;;;;;;4994021;28;20031;-65
2022/10/05 11:42:12;;;;;;;9.35;1.75;;;13.00;99.90;;;;;;4994052;28;20109;-66
2022/10/05 11:45:15;;;;;;;9.93;2.55;;;12.90;99.90;;;;;;4994183;28;20022;-65
2022/10/05 11:47:58;;;;;;;10.52;2.33;;;12.90;99.90;;;;;;4994480;28;20076;-66
2022/10/05 11:50:38;;;;;;;8.73;2.00;;;12.90;99.90;;;;;;4993975;28;20487;-66
2022/10/05 11:53:31;;;;;;;15.48;1.75;;;12.90;99.90;;;;;;4994035;28;20117;-63
2022/10/05 11:56:22;;;;;;;8.05;2.10;;;12.90;99.90;;;;;;4993932;28;20030;-66
2022/10/05 11:58:54;;;;;;;10.48;2.17;;;13.00;99.90;;;;;;4993967;28;20352;-66
2022/10/05 12:01:52;;;;;;;6.75;1.73;;;12.90;99.90;;;;;;4994645;28;20035;-66
2022/10/05 12:04:55;;;;;;;10.60;1.98;;;13.00;99.90;;;;;;4993875;28;20100;-66
2022/10/05 12:07:58;;;;;;;10.20;1.63;;;13.00;99.90;;;;;;4993826;28;20045;-65
2022/10/05 12:10:55;;;;;;;13.27;1.85;;;13.00;99.90;;;;;;4993707;28;20030;-65
2022/10/05 12:13:53;;;;;;;19.48;2.17;;;13.00;99.90;;;;;;4997783;28;20498;-66
2022/10/05 12:16:40;;;;;;;11.20;1.58;;;13.00;99.90;;;;;;4997584;28;20034;-66
2022/10/05 12:19:28;;;;;;;9.13;2.42;;;13.00;99.90;;;;;;4997592;28;20026;-65
2022/10/05 12:22:00;;;;;;;7.22;2.03;;;13.00;99.90;;;;;;4997686;28;20034;-66
2022/10/05 12:25:00;;;;;;;15.70;2.38;;;13.00;99.90;;;;;;4997457;28;20057;-66
2022/10/05 12:27:35;;;;;;;12.48;2.55;;;13.00;99.90;;;;;;4997357;28;20070;-64
2022/10/05 12:30:14;;;;;;;11.38;2.15;;;13.00;99.90;;;;;;4997259;28;20038;-63
2022/10/05 12:32:45;;;;;;;11.38;2.17;;;13.00;99.90;;;;;;4997385;28;20041;-65
2022/10/05 12:35:24;;;;;;;20.95;2.42;;;13.00;99.90;;;;;;4997289;28;20023;-65
2022/10/05 12:38:09;;;;;;;15.45;1.75;;;13.10;99.90;;;;;;4997252;28;20037;-64
2022/10/05 12:40:58;;;;;;;14.52;2.40;;;13.10;99.90;;;;;;4997281;28;20084;-65
2022/10/05 12:43:54;;;;;;;16.67;2.72;;;13.10;99.90;;;;;;4997058;28;20053;-66
2022/10/05 12:46:54;;;;;;;12.20;2.80;;;13.10;99.90;;;;;;4996457;28;20038;-66
2022/10/05 12:49:43;;;;;;;15.07;2.53;;;13.10;99.90;;;;;;4997256;28;20054;-66
2022/10/05 12:52:25;;;;;;;8.85;1.50;;;13.10;99.90;;;;;;4996886;28;20053;-66
2022/10/05 12:55:20;;;;;;;11.20;2.75;;;13.10;99.90;;;;;;4997352;28;20486;-65
2022/10/05 12:57:59;;;;;;;13.10;2.05;;;13.10;99.90;;;;;;4996844;28;20035;-65
2022/10/05 13:00:28;;;;;;;16.23;2.08;;;13.10;99.90;;;;;;4996802;28;20034;-65
2022/10/05 13:03:08;;;;;;;15.15;3.00;;;13.10;99.90;;;;;;4996714;28;20100;-64
2022/10/05 13:05:46;;;;;;;15.48;1.88;;;13.10;99.90;;;;;;4996767;28;20018;-65
2022/10/05 13:08:49;;;;;;;12.30;2.60;;;13.10;99.90;;;;;;4996721;28;20035;-65
2022/10/05 13:11:39;;;;;;;9.70;1.80;;;13.10;99.90;;;;;;4992751;28;20146;-65
2022/10/05 13:14:19;;;;;;;10.38;2.75;;;13.20;99.90;;;;;;4996689;28;20077;-62
2022/10/05 13:17:07;;;;;;;14.32;2.15;;;13.10;99.90;;;;;;4996664;28;20096;-65
2022/10/05 13:19:47;;;;;;;11.65;2.50;;;13.20;99.90;;;;;;4996491;28;20034;-66
2022/10/05 13:22:38;;;;;;;10.40;2.00;;;13.20;99.90;;;;;;4996453;28;20109;-65
2022/10/05 13:25:33;;;;;;;13.80;2.45;;;13.20;99.90;;;;;;4996414;28;20030;-65
2022/10/05 13:28:15;;;;;;;16.85;3.58;;;13.20;99.90;;;;;;4996314;28;20038;-65
2022/10/05 13:30:53;;;;;;;20.08;2.28;;;13.20;99.90;;;;;;4995984;28;20507;-66
2022/10/05 13:33:53;;;;;;;12.48;2.00;;;13.20;99.90;;;;;;4994876;28;20034;-65
2022/10/05 13:36:25;;;;;;;20.73;2.40;;;13.20;99.90;;;;;;4993434;28;20030;-65
2022/10/05 13:39:09;;;;;;;11.52;2.53;;;13.20;99.90;;;;;;4996271;28;20113;-66
2022/10/05 13:41:54;;;;;;;15.70;2.97;;;13.20;99.90;;;;;;4996283;28;20395;-65
2022/10/05 13:44:29;;;;;;;16.65;2.17;;;13.30;99.90;;;;;;4996063;28;20192;-65
2022/10/05 13:47:09;;;;;;;10.95;2.53;;;13.30;99.90;;;;;;4995928;28;20042;-65
2022/10/05 13:49:55;;;;;;;10.68;2.72;;;13.20;99.90;;;;;;4996101;28;20142;-65
2022/10/05 13:52:28;;;;;;;;;;;13.30;99.90;;;;;;4996124;28;20029;-65
2022/10/05 13:55:20;;;;;;;10.23;2.00;;;13.30;99.90;;;;;;4996009;28;19912;-66
2022/10/05 13:58:19;;;;;;;12.90;3.30;;;13.30;99.90;;;;;;4996110;28;20084;-63
2022/10/05 14:00:58;;;;;;;14.93;3.38;;;13.30;99.90;;;;;;4995668;28;20034;-64
2022/10/05 14:03:35;;;;;;;11.82;3.03;;;13.30;99.90;;;;;;4995717;28;20513;-65
2022/10/05 14:06:13;;;;;;;16.75;2.70;;;13.30;99.90;;;;;;4995619;28;20022;-65
2022/10/05 14:08:52;;;;;;;9.68;2.33;;;13.30;99.90;;;;;;4995614;28;20034;-65
2022/10/05 14:11:34;;;;;;;12.35;2.53;;;13.30;99.90;;;;;;4995445;28;20376;-65
2022/10/05 14:14:27;;;;;;;14.18;1.98;;;13.30;99.90;;;;;;4995523;28;20034;-63
2022/10/05 14:17:02;;;;;;;11.68;1.98;;;13.20;99.90;;;;;;4992993;28;20041;-65